sensor_id;sensor_type;location;lat;lon;timestamp;pressure;altitude;pressure_sealevel;temperature;humidity
28927;BME280;16038;47.692;9.400;2023-03-08T00:01:25;95468.19;;;3.57;71.83
28927;BME280;16038;47.692;9.400;2023-03-08T00:03:54;95464.28;;;3.55;72.47
28927;BME280;16038;47.692;9.400;2023-03-08T00:06:20;95465.84;;;3.56;71.48
28927;BME280;16038;47.692;9.400;2023-03-08T00:08:46;95469.53;;;3.48;72.44
28927;BME280;16038;47.692;9.400;2023-03-08T00:11:12;95456.06;;;3.51;72.24
28927;BME280;16038;47.692;9.400;2023-03-08T00:13:38;95455.78;;;3.56;71.94
28927;BME280;16038;47.692;9.400;2023-03-08T00:16:04;95460.09;;;3.41;72.02
28927;BME280;16038;47.692;9.400;2023-03-08T00:18:30;95467.44;;;3.41;72.79
28927;BME280;16038;47.692;9.400;2023-03-08T00:21:29;95465.59;;;3.45;72.62
28927;BME280;16038;47.692;9.400;2023-03-08T00:23:49;95464.63;;;3.37;72.70
28927;BME280;16038;47.692;9.400;2023-03-08T00:26:15;95472.66;;;3.34;73.45
28927;BME280;16038;47.692;9.400;2023-03-08T00:28:40;95471.72;;;3.26;73.68
28927;BME280;16038;47.692;9.400;2023-03-08T00:31:06;95482.97;;;3.28;73.48
28927;BME280;16038;47.692;9.400;2023-03-08T00:33:32;95484.53;;;3.29;73.62
28927;BME280;16038;47.692;9.400;2023-03-08T00:35:59;95484.00;;;3.39;73.18
28927;BME280;16038;47.692;9.400;2023-03-08T00:38:25;95491.59;;;3.34;73.39
28927;BME280;16038;47.692;9.400;2023-03-08T00:40:50;95492.72;;;3.33;73.09
28927;BME280;16038;47.692;9.400;2023-03-08T00:43:15;95486.19;;;3.34;73.93
28927;BME280;16038;47.692;9.400;2023-03-08T00:45:41;95473.00;;;3.32;73.24
28927;BME280;16038;47.692;9.400;2023-03-08T00:48:06;95484.53;;;3.29;73.16
28927;BME280;16038;47.692;9.400;2023-03-08T00:50:31;95469.44;;;3.44;72.68
28927;BME280;16038;47.692;9.400;2023-03-08T00:52:56;95457.91;;;3.31;73.55
28927;BME280;16038;47.692;9.400;2023-03-08T00:55:22;95470.91;;;3.41;72.58
28927;BME280;16038;47.692;9.400;2023-03-08T00:57:47;95457.88;;;3.47;72.89
28927;BME280;16038;47.692;9.400;2023-03-08T01:00:12;95470.22;;;3.44;72.50
28927;BME280;16038;47.692;9.400;2023-03-08T01:02:38;95461.84;;;3.50;72.19
28927;BME280;16038;47.692;9.400;2023-03-08T01:05:05;95456.94;;;3.55;72.42
28927;BME280;16038;47.692;9.400;2023-03-08T01:07:31;95454.16;;;3.36;72.48
28927;BME280;16038;47.692;9.400;2023-03-08T01:09:56;95447.50;;;3.49;72.24
28927;BME280;16038;47.692;9.400;2023-03-08T01:12:21;95450.19;;;3.49;72.02
28927;BME280;16038;47.692;9.400;2023-03-08T01:14:47;95442.47;;;3.48;72.23
28927;BME280;16038;47.692;9.400;2023-03-08T01:17:13;95435.28;;;3.39;72.13
28927;BME280;16038;47.692;9.400;2023-03-08T01:19:38;95424.28;;;3.48;70.84
28927;BME280;16038;47.692;9.400;2023-03-08T01:22:03;95421.91;;;3.47;71.38
28927;BME280;16038;47.692;9.400;2023-03-08T01:24:29;95423.28;;;3.56;70.98
28927;BME280;16038;47.692;9.400;2023-03-08T01:26:54;95423.22;;;3.53;71.56
28927;BME280;16038;47.692;9.400;2023-03-08T01:29:22;95421.13;;;3.62;71.84
28927;BME280;16038;47.692;9.400;2023-03-08T01:31:48;95416.16;;;3.48;72.18
28927;BME280;16038;47.692;9.400;2023-03-08T01:34:13;95408.19;;;3.55;71.81
28927;BME280;16038;47.692;9.400;2023-03-08T01:36:38;95400.59;;;3.61;72.33
28927;BME280;16038;47.692;9.400;2023-03-08T01:39:03;95397.25;;;3.68;72.05
28927;BME280;16038;47.692;9.400;2023-03-08T01:41:30;95387.41;;;3.59;72.70
28927;BME280;16038;47.692;9.400;2023-03-08T01:43:55;95382.50;;;3.65;73.18
28927;BME280;16038;47.692;9.400;2023-03-08T01:46:22;95373.66;;;3.68;73.61
28927;BME280;16038;47.692;9.400;2023-03-08T01:53:57;95347.59;;;3.79;73.16
28927;BME280;16038;47.692;9.400;2023-03-08T01:56:25;95337.41;;;3.73;73.76
28927;BME280;16038;47.692;9.400;2023-03-08T01:58:51;95340.75;;;3.66;73.16
28927;BME280;16038;47.692;9.400;2023-03-08T02:01:17;95337.88;;;3.59;73.79
28927;BME280;16038;47.692;9.400;2023-03-08T02:03:43;95333.81;;;3.69;72.51
28927;BME280;16038;47.692;9.400;2023-03-08T02:06:09;95336.03;;;3.63;72.74
28927;BME280;16038;47.692;9.400;2023-03-08T02:08:34;95331.03;;;3.65;73.13
28927;BME280;16038;47.692;9.400;2023-03-08T02:11:00;95325.19;;;3.63;73.71
28927;BME280;16038;47.692;9.400;2023-03-08T02:13:25;95327.06;;;3.78;73.17
28927;BME280;16038;47.692;9.400;2023-03-08T02:15:51;95322.91;;;3.65;73.43
28927;BME280;16038;47.692;9.400;2023-03-08T02:18:19;95320.94;;;3.62;73.93
28927;BME280;16038;47.692;9.400;2023-03-08T02:20:44;95316.16;;;3.55;74.46
28927;BME280;16038;47.692;9.400;2023-03-08T02:23:11;95315.44;;;3.58;74.82
28927;BME280;16038;47.692;9.400;2023-03-08T02:25:36;95314.09;;;3.68;74.30
28927;BME280;16038;47.692;9.400;2023-03-08T02:28:02;95303.66;;;3.51;74.37
28927;BME280;16038;47.692;9.400;2023-03-08T02:30:35;95289.63;;;3.45;74.73
28927;BME280;16038;47.692;9.400;2023-03-08T02:33:01;95302.53;;;3.52;74.71
28927;BME280;16038;47.692;9.400;2023-03-08T02:35:27;95298.09;;;3.43;74.66
28927;BME280;16038;47.692;9.400;2023-03-08T02:37:52;95300.94;;;3.31;75.09
28927;BME280;16038;47.692;9.400;2023-03-08T02:40:17;95296.19;;;3.24;75.27
28927;BME280;16038;47.692;9.400;2023-03-08T02:42:43;95298.06;;;3.24;75.48
28927;BME280;16038;47.692;9.400;2023-03-08T02:45:08;95298.75;;;3.37;75.68
28927;BME280;16038;47.692;9.400;2023-03-08T02:47:34;95294.91;;;3.38;75.38
28927;BME280;16038;47.692;9.400;2023-03-08T02:49:59;95298.84;;;3.40;75.59
28927;BME280;16038;47.692;9.400;2023-03-08T02:52:24;95293.94;;;3.66;74.34
28927;BME280;16038;47.692;9.400;2023-03-08T02:54:49;95293.78;;;3.58;74.79
28927;BME280;16038;47.692;9.400;2023-03-08T02:57:15;95287.22;;;3.59;75.32
28927;BME280;16038;47.692;9.400;2023-03-08T02:59:40;95276.88;;;3.65;75.33
28927;BME280;16038;47.692;9.400;2023-03-08T03:02:05;95278.41;;;3.82;74.55
28927;BME280;16038;47.692;9.400;2023-03-08T03:04:31;95273.63;;;3.75;75.08
28927;BME280;16038;47.692;9.400;2023-03-08T03:06:57;95279.31;;;3.70;75.90
28927;BME280;16038;47.692;9.400;2023-03-08T03:09:23;95274.19;;;3.65;76.55
28927;BME280;16038;47.692;9.400;2023-03-08T03:11:48;95263.41;;;3.69;76.62
28927;BME280;16038;47.692;9.400;2023-03-08T03:14:13;95270.34;;;3.66;76.65
28927;BME280;16038;47.692;9.400;2023-03-08T03:16:39;95265.91;;;3.58;77.34
28927;BME280;16038;47.692;9.400;2023-03-08T03:19:05;95254.72;;;3.59;77.61
28927;BME280;16038;47.692;9.400;2023-03-08T03:21:30;95238.91;;;3.61;77.48
28927;BME280;16038;47.692;9.400;2023-03-08T03:23:55;95238.41;;;3.56;77.38
28927;BME280;16038;47.692;9.400;2023-03-08T03:26:21;95232.03;;;3.44;78.07
28927;BME280;16038;47.692;9.400;2023-03-08T03:28:47;95223.63;;;3.30;78.22
28927;BME280;16038;47.692;9.400;2023-03-08T03:31:13;95224.00;;;3.13;79.74
28927;BME280;16038;47.692;9.400;2023-03-08T03:33:39;95220.72;;;3.03;80.58
28927;BME280;16038;47.692;9.400;2023-03-08T03:36:05;95211.69;;;2.96;81.07
28927;BME280;16038;47.692;9.400;2023-03-08T03:38:31;95204.19;;;2.89;80.90
28927;BME280;16038;47.692;9.400;2023-03-08T03:41:02;95195.50;;;2.80;82.25
28927;BME280;16038;47.692;9.400;2023-03-08T03:43:29;95198.63;;;2.82;82.54
28927;BME280;16038;47.692;9.400;2023-03-08T03:45:58;95191.28;;;2.82;83.39
28927;BME280;16038;47.692;9.400;2023-03-08T03:48:23;95188.94;;;2.81;83.18
28927;BME280;16038;47.692;9.400;2023-03-08T03:50:59;95180.63;;;2.90;83.67
28927;BME280;16038;47.692;9.400;2023-03-08T03:53:26;95172.88;;;2.88;83.38
28927;BME280;16038;47.692;9.400;2023-03-08T03:55:51;95166.25;;;2.85;83.31
28927;BME280;16038;47.692;9.400;2023-03-08T03:58:17;95160.47;;;2.67;83.75
28927;BME280;16038;47.692;9.400;2023-03-08T04:00:42;95159.66;;;2.32;86.22
28927;BME280;16038;47.692;9.400;2023-03-08T04:03:08;95162.47;;;2.19;86.69
28927;BME280;16038;47.692;9.400;2023-03-08T04:05:33;95167.19;;;2.06;87.71
28927;BME280;16038;47.692;9.400;2023-03-08T04:07:58;95156.38;;;2.06;88.32
28927;BME280;16038;47.692;9.400;2023-03-08T04:10:24;95158.91;;;2.15;87.83
28927;BME280;16038;47.692;9.400;2023-03-08T04:12:50;95158.03;;;2.27;88.64
28927;BME280;16038;47.692;9.400;2023-03-08T04:15:15;95159.84;;;2.39;87.37
28927;BME280;16038;47.692;9.400;2023-03-08T04:17:43;95150.34;;;2.45;88.15
28927;BME280;16038;47.692;9.400;2023-03-08T04:20:09;95145.44;;;2.51;87.08
28927;BME280;16038;47.692;9.400;2023-03-08T04:22:35;95143.66;;;2.58;86.97
28927;BME280;16038;47.692;9.400;2023-03-08T04:25:01;95145.16;;;2.56;86.36
28927;BME280;16038;47.692;9.400;2023-03-08T04:27:28;95126.59;;;2.54;86.44
28927;BME280;16038;47.692;9.400;2023-03-08T04:29:54;95122.00;;;2.39;86.74
28927;BME280;16038;47.692;9.400;2023-03-08T04:32:20;95118.44;;;2.35;87.14
28927;BME280;16038;47.692;9.400;2023-03-08T04:34:45;95118.00;;;2.48;87.55
28927;BME280;16038;47.692;9.400;2023-03-08T04:37:10;95126.44;;;2.47;87.23
28927;BME280;16038;47.692;9.400;2023-03-08T04:39:36;95117.91;;;2.45;87.57
28927;BME280;16038;47.692;9.400;2023-03-08T04:42:01;95117.84;;;2.41;87.20
28927;BME280;16038;47.692;9.400;2023-03-08T04:44:27;95113.47;;;2.37;87.09
28927;BME280;16038;47.692;9.400;2023-03-08T04:46:52;95122.00;;;2.39;87.98
28927;BME280;16038;47.692;9.400;2023-03-08T04:49:17;95116.53;;;2.35;87.96
28927;BME280;16038;47.692;9.400;2023-03-08T04:51:43;95111.91;;;2.36;88.25
28927;BME280;16038;47.692;9.400;2023-03-08T04:54:08;95107.63;;;2.35;88.93
28927;BME280;16038;47.692;9.400;2023-03-08T04:56:33;95101.88;;;2.36;88.66
28927;BME280;16038;47.692;9.400;2023-03-08T04:58:59;95091.94;;;2.40;88.86
28927;BME280;16038;47.692;9.400;2023-03-08T05:01:24;95088.47;;;2.40;88.98
28927;BME280;16038;47.692;9.400;2023-03-08T05:03:50;95091.09;;;2.36;89.23
28927;BME280;16038;47.692;9.400;2023-03-08T05:06:16;95090.91;;;2.29;89.85
28927;BME280;16038;47.692;9.400;2023-03-08T05:08:42;95089.44;;;2.16;90.93
28927;BME280;16038;47.692;9.400;2023-03-08T05:11:08;95085.56;;;2.13;90.84
28927;BME280;16038;47.692;9.400;2023-03-08T05:13:36;95090.34;;;2.20;91.30
28927;BME280;16038;47.692;9.400;2023-03-08T05:16:03;95095.75;;;2.20;90.70
28927;BME280;16038;47.692;9.400;2023-03-08T05:18:29;95096.75;;;2.31;91.63
28927;BME280;16038;47.692;9.400;2023-03-08T05:21:02;95099.88;;;2.33;91.36
28927;BME280;16038;47.692;9.400;2023-03-08T05:23:27;95099.88;;;2.33;90.80
28927;BME280;16038;47.692;9.400;2023-03-08T05:25:54;95096.06;;;2.34;91.38
28927;BME280;16038;47.692;9.400;2023-03-08T05:28:20;95091.53;;;2.22;91.72
28927;BME280;16038;47.692;9.400;2023-03-08T05:30:45;95089.94;;;2.02;92.71
28927;BME280;16038;47.692;9.400;2023-03-08T05:33:10;95092.81;;;1.93;94.33
28927;BME280;16038;47.692;9.400;2023-03-08T05:35:36;95099.59;;;2.03;94.24
28927;BME280;16038;47.692;9.400;2023-03-08T05:38:01;95089.72;;;2.10;94.28
28927;BME280;16038;47.692;9.400;2023-03-08T05:40:26;95085.06;;;1.91;95.05
28927;BME280;16038;47.692;9.400;2023-03-08T05:42:53;95081.75;;;1.82;95.57
28927;BME280;16038;47.692;9.400;2023-03-08T05:45:18;95077.41;;;1.78;96.12
28927;BME280;16038;47.692;9.400;2023-03-08T05:47:44;95073.16;;;1.61;97.08
28927;BME280;16038;47.692;9.400;2023-03-08T05:50:10;95064.72;;;1.62;98.11
28927;BME280;16038;47.692;9.400;2023-03-08T05:52:35;95057.22;;;1.71;99.15
28927;BME280;16038;47.692;9.400;2023-03-08T05:55:01;95049.19;;;1.75;99.02
28927;BME280;16038;47.692;9.400;2023-03-08T05:57:26;95047.63;;;1.74;98.29
28927;BME280;16038;47.692;9.400;2023-03-08T05:59:52;95056.50;;;1.75;98.15
28927;BME280;16038;47.692;9.400;2023-03-08T06:02:17;95060.94;;;1.83;98.32
28927;BME280;16038;47.692;9.400;2023-03-08T06:04:42;95057.53;;;1.86;98.38
28927;BME280;16038;47.692;9.400;2023-03-08T06:07:08;95058.94;;;1.80;98.20
28927;BME280;16038;47.692;9.400;2023-03-08T06:09:33;95063.19;;;1.97;98.41
28927;BME280;16038;47.692;9.400;2023-03-08T06:11:58;95065.25;;;2.03;97.66
28927;BME280;16038;47.692;9.400;2023-03-08T06:14:24;95060.31;;;2.05;99.13
28927;BME280;16038;47.692;9.400;2023-03-08T06:16:49;95055.50;;;2.15;98.41
28927;BME280;16038;47.692;9.400;2023-03-08T06:19:14;95044.69;;;2.15;98.44
28927;BME280;16038;47.692;9.400;2023-03-08T06:21:40;95040.06;;;2.15;98.60
28927;BME280;16038;47.692;9.400;2023-03-08T06:24:05;95031.72;;;2.04;99.30
28927;BME280;16038;47.692;9.400;2023-03-08T06:26:30;95039.06;;;2.04;99.58
28927;BME280;16038;47.692;9.400;2023-03-08T06:28:56;95037.72;;;2.14;99.49
28927;BME280;16038;47.692;9.400;2023-03-08T06:31:21;95051.53;;;2.28;98.82
28927;BME280;16038;47.692;9.400;2023-03-08T06:33:46;95046.41;;;2.42;98.96
28927;BME280;16038;47.692;9.400;2023-03-08T06:36:13;95046.78;;;2.60;98.25
28927;BME280;16038;47.692;9.400;2023-03-08T06:38:38;95036.47;;;2.66;96.42
28927;BME280;16038;47.692;9.400;2023-03-08T06:41:04;95041.66;;;2.55;95.77
28927;BME280;16038;47.692;9.400;2023-03-08T06:43:30;95038.41;;;2.65;96.05
28927;BME280;16038;47.692;9.400;2023-03-08T06:45:56;95029.59;;;2.68;95.91
28927;BME280;16038;47.692;9.400;2023-03-08T06:48:22;95019.75;;;2.60;96.81
28927;BME280;16038;47.692;9.400;2023-03-08T06:50:47;95016.78;;;2.65;96.52
28927;BME280;16038;47.692;9.400;2023-03-08T06:53:12;95029.00;;;2.79;95.60
28927;BME280;16038;47.692;9.400;2023-03-08T06:55:38;95031.53;;;2.91;94.95
28927;BME280;16038;47.692;9.400;2023-03-08T06:58:04;95023.75;;;3.09;94.55
28927;BME280;16038;47.692;9.400;2023-03-08T07:00:30;95029.63;;;3.57;91.97
28927;BME280;16038;47.692;9.400;2023-03-08T07:02:56;95018.50;;;3.89;89.93
28927;BME280;16038;47.692;9.400;2023-03-08T07:05:21;95014.94;;;4.12;88.55
28927;BME280;16038;47.692;9.400;2023-03-08T07:07:46;95000.22;;;4.09;89.18
28927;BME280;16038;47.692;9.400;2023-03-08T07:10:12;94989.66;;;4.31;90.21
28927;BME280;16038;47.692;9.400;2023-03-08T07:12:39;94977.34;;;4.37;90.44
28927;BME280;16038;47.692;9.400;2023-03-08T07:15:08;94972.72;;;4.41;91.51
28927;BME280;16038;47.692;9.400;2023-03-08T07:17:34;94983.78;;;4.59;93.10
28927;BME280;16038;47.692;9.400;2023-03-08T07:20:00;94969.78;;;4.53;94.29
28927;BME280;16038;47.692;9.400;2023-03-08T07:22:25;94964.00;;;4.55;95.37
28927;BME280;16038;47.692;9.400;2023-03-08T07:24:51;94955.16;;;4.62;96.45
28927;BME280;16038;47.692;9.400;2023-03-08T07:27:16;94971.59;;;4.76;94.99
28927;BME280;16038;47.692;9.400;2023-03-08T07:29:41;94983.03;;;4.96;93.23
28927;BME280;16038;47.692;9.400;2023-03-08T07:32:07;94994.59;;;4.89;94.61
28927;BME280;16038;47.692;9.400;2023-03-08T07:34:32;94990.97;;;5.12;93.20
28927;BME280;16038;47.692;9.400;2023-03-08T07:36:57;94983.06;;;5.37;90.47
28927;BME280;16038;47.692;9.400;2023-03-08T07:39:22;94977.59;;;5.33;91.51
28927;BME280;16038;47.692;9.400;2023-03-08T07:41:48;94967.25;;;5.50;89.48
28927;BME280;16038;47.692;9.400;2023-03-08T07:44:14;94967.41;;;5.71;87.96
28927;BME280;16038;47.692;9.400;2023-03-08T07:46:39;94970.06;;;5.64;85.91
28927;BME280;16038;47.692;9.400;2023-03-08T07:49:05;94979.41;;;5.67;86.10
28927;BME280;16038;47.692;9.400;2023-03-08T07:51:34;94966.78;;;5.41;88.34
28927;BME280;16038;47.692;9.400;2023-03-08T07:53:59;94953.47;;;5.73;86.71
28927;BME280;16038;47.692;9.400;2023-03-08T07:56:25;94949.66;;;5.88;86.39
28927;BME280;16038;47.692;9.400;2023-03-08T07:58:50;94957.84;;;5.92;85.68
28927;BME280;16038;47.692;9.400;2023-03-08T08:01:15;94955.84;;;5.82;86.55
28927;BME280;16038;47.692;9.400;2023-03-08T08:03:41;94948.78;;;5.73;87.84
28927;BME280;16038;47.692;9.400;2023-03-08T08:06:06;94936.69;;;5.60;87.45
28927;BME280;16038;47.692;9.400;2023-03-08T08:08:31;94923.44;;;5.51;86.80
28927;BME280;16038;47.692;9.400;2023-03-08T08:10:57;94930.22;;;5.27;86.20
28927;BME280;16038;47.692;9.400;2023-03-08T08:13:23;94945.81;;;5.38;87.35
28927;BME280;16038;47.692;9.400;2023-03-08T08:16:01;94948.81;;;5.25;87.18
28927;BME280;16038;47.692;9.400;2023-03-08T08:18:27;94964.56;;;5.09;89.28
28927;BME280;16038;47.692;9.400;2023-03-08T08:21:03;94969.72;;;5.21;88.21
28927;BME280;16038;47.692;9.400;2023-03-08T08:23:28;94947.34;;;5.35;87.26
28927;BME280;16038;47.692;9.400;2023-03-08T08:25:54;94939.56;;;5.30;87.32
28927;BME280;16038;47.692;9.400;2023-03-08T08:28:22;94937.56;;;5.23;88.42
28927;BME280;16038;47.692;9.400;2023-03-08T08:30:54;94956.66;;;5.34;89.45
28927;BME280;16038;47.692;9.400;2023-03-08T08:33:19;94951.97;;;5.34;89.90
28927;BME280;16038;47.692;9.400;2023-03-08T08:35:45;94943.75;;;5.24;90.97
28927;BME280;16038;47.692;9.400;2023-03-08T08:38:11;94946.19;;;5.36;90.06
28927;BME280;16038;47.692;9.400;2023-03-08T08:40:36;94938.03;;;5.36;88.89
28927;BME280;16038;47.692;9.400;2023-03-08T08:43:01;94954.13;;;5.14;88.18
28927;BME280;16038;47.692;9.400;2023-03-08T08:45:26;94944.19;;;5.26;85.82
28927;BME280;16038;47.692;9.400;2023-03-08T08:47:52;94937.25;;;5.35;85.51
28927;BME280;16038;47.692;9.400;2023-03-08T08:50:17;94943.41;;;5.29;85.15
28927;BME280;16038;47.692;9.400;2023-03-08T08:52:42;94943.69;;;5.16;85.21
28927;BME280;16038;47.692;9.400;2023-03-08T08:55:08;94948.44;;;5.27;84.27
28927;BME280;16038;47.692;9.400;2023-03-08T08:57:33;94939.19;;;5.31;83.61
28927;BME280;16038;47.692;9.400;2023-03-08T08:59:58;94937.81;;;5.11;82.59
28927;BME280;16038;47.692;9.400;2023-03-08T09:02:24;94944.00;;;5.04;82.66
28927;BME280;16038;47.692;9.400;2023-03-08T09:04:49;94937.34;;;5.02;82.52
28927;BME280;16038;47.692;9.400;2023-03-08T09:07:14;94938.25;;;5.16;81.10
28927;BME280;16038;47.692;9.400;2023-03-08T09:09:40;94927.47;;;5.24;79.83
28927;BME280;16038;47.692;9.400;2023-03-08T09:12:05;94916.41;;;5.47;79.73
28927;BME280;16038;47.692;9.400;2023-03-08T09:14:30;94907.06;;;5.41;78.60
28927;BME280;16038;47.692;9.400;2023-03-08T09:16:56;94927.56;;;5.38;79.12
28927;BME280;16038;47.692;9.400;2023-03-08T09:19:21;94924.47;;;5.36;79.45
28927;BME280;16038;47.692;9.400;2023-03-08T09:21:46;94928.06;;;5.51;78.37
28927;BME280;16038;47.692;9.400;2023-03-08T09:24:12;94942.91;;;5.64;77.51
28927;BME280;16038;47.692;9.400;2023-03-08T09:26:37;94938.59;;;5.60;78.64
28927;BME280;16038;47.692;9.400;2023-03-08T09:29:03;94951.22;;;5.86;77.26
28927;BME280;16038;47.692;9.400;2023-03-08T09:31:31;94935.00;;;5.97;76.92
28927;BME280;16038;47.692;9.400;2023-03-08T09:33:57;94926.78;;;5.89;77.33
28927;BME280;16038;47.692;9.400;2023-03-08T09:36:24;94917.00;;;5.81;77.66
28927;BME280;16038;47.692;9.400;2023-03-08T09:38:49;94915.13;;;5.89;78.73
28927;BME280;16038;47.692;9.400;2023-03-08T09:44:11;94905.59;;;6.17;76.66
28927;BME280;16038;47.692;9.400;2023-03-08T09:46:41;94910.69;;;6.25;74.99
28927;BME280;16038;47.692;9.400;2023-03-08T09:49:14;94910.72;;;6.40;74.14
28927;BME280;16038;47.692;9.400;2023-03-08T09:51:43;94921.28;;;6.59;72.64
28927;BME280;16038;47.692;9.400;2023-03-08T09:54:11;94913.84;;;6.38;72.76
28927;BME280;16038;47.692;9.400;2023-03-08T09:56:40;94911.44;;;6.26;73.08
28927;BME280;16038;47.692;9.400;2023-03-08T09:59:10;94910.84;;;6.72;71.28
28927;BME280;16038;47.692;9.400;2023-03-08T10:01:37;94901.16;;;6.93;69.50
28927;BME280;16038;47.692;9.400;2023-03-08T10:11:57;94898.78;;;6.84;69.44
28927;BME280;16038;47.692;9.400;2023-03-08T10:14:29;94898.41;;;6.89;69.58
28927;BME280;16038;47.692;9.400;2023-03-08T10:17:01;94908.13;;;6.86;69.28
28927;BME280;16038;47.692;9.400;2023-03-08T10:21:57;94908.16;;;6.94;70.28
28927;BME280;16038;47.692;9.400;2023-03-08T10:27:04;94916.72;;;6.96;73.65
28927;BME280;16038;47.692;9.400;2023-03-08T10:29:31;94921.38;;;6.88;73.45
28927;BME280;16038;47.692;9.400;2023-03-08T10:31:56;94926.03;;;6.95;73.42
28927;BME280;16038;47.692;9.400;2023-03-08T10:34:24;94927.97;;;6.94;72.53
28927;BME280;16038;47.692;9.400;2023-03-08T10:36:59;94931.84;;;6.97;72.85
28927;BME280;16038;47.692;9.400;2023-03-08T10:39:25;94924.50;;;7.08;72.06
28927;BME280;16038;47.692;9.400;2023-03-08T10:41:52;94943.50;;;6.79;72.10
28927;BME280;16038;47.692;9.400;2023-03-08T10:47:00;94915.16;;;7.05;71.99
28927;BME280;16038;47.692;9.400;2023-03-08T10:49:27;94921.78;;;7.08;72.03
28927;BME280;16038;47.692;9.400;2023-03-08T10:52:00;94904.66;;;7.40;71.10
28927;BME280;16038;47.692;9.400;2023-03-08T10:54:26;94922.19;;;7.42;72.63
28927;BME280;16038;47.692;9.400;2023-03-08T10:59:18;94926.03;;;7.05;75.71
28927;BME280;16038;47.692;9.400;2023-03-08T11:01:50;94900.78;;;7.23;75.30
28927;BME280;16038;47.692;9.400;2023-03-08T11:04:17;94914.78;;;7.36;75.71
28927;BME280;16038;47.692;9.400;2023-03-08T11:06:43;94924.16;;;7.45;75.58
28927;BME280;16038;47.692;9.400;2023-03-08T11:09:25;94931.91;;;7.58;75.94
28927;BME280;16038;47.692;9.400;2023-03-08T11:11:52;94917.50;;;7.64;76.09
28927;BME280;16038;47.692;9.400;2023-03-08T11:14:17;94931.88;;;7.79;75.27
28927;BME280;16038;47.692;9.400;2023-03-08T11:35:20;94916.28;;;7.98;82.48
28927;BME280;16038;47.692;9.400;2023-03-08T11:38:00;94920.91;;;8.08;83.01
28927;BME280;16038;47.692;9.400;2023-03-08T11:43:08;94916.19;;;8.30;83.53
28927;BME280;16038;47.692;9.400;2023-03-08T11:51:15;94915.34;;;8.51;82.63
28927;BME280;16038;47.692;9.400;2023-03-08T11:58:56;94914.16;;;8.56;83.78
28927;BME280;16038;47.692;9.400;2023-03-08T12:01:27;94914.53;;;8.58;83.75
28927;BME280;16038;47.692;9.400;2023-03-08T12:03:59;94912.97;;;8.57;84.85
28927;BME280;16038;47.692;9.400;2023-03-08T12:06:33;94913.34;;;8.70;84.34
28927;BME280;16038;47.692;9.400;2023-03-08T12:09:08;94917.91;;;8.84;84.02
28927;BME280;16038;47.692;9.400;2023-03-08T12:11:46;94920.97;;;8.93;83.34
28927;BME280;16038;47.692;9.400;2023-03-08T12:15:17;94927.47;;;9.17;82.49
28927;BME280;16038;47.692;9.400;2023-03-08T12:19:43;94898.13;;;8.65;85.39
28927;BME280;16038;47.692;9.400;2023-03-08T12:24:54;94911.66;;;8.87;85.17
28927;BME280;16038;47.692;9.400;2023-03-08T12:27:27;94918.72;;;8.84;85.29
28927;BME280;16038;47.692;9.400;2023-03-08T12:30:10;94913.66;;;8.79;85.75
28927;BME280;16038;47.692;9.400;2023-03-08T12:32:38;94909.41;;;8.71;86.31
28927;BME280;16038;47.692;9.400;2023-03-08T12:35:06;94905.09;;;8.77;86.41
28927;BME280;16038;47.692;9.400;2023-03-08T12:37:32;94918.00;;;8.69;86.95
28927;BME280;16038;47.692;9.400;2023-03-08T12:39:59;94911.00;;;8.68;87.05
28927;BME280;16038;47.692;9.400;2023-03-08T12:42:29;94915.63;;;8.75;87.51
28927;BME280;16038;47.692;9.400;2023-03-08T12:45:04;94911.72;;;8.79;87.05
28927;BME280;16038;47.692;9.400;2023-03-08T12:47:30;94911.31;;;8.81;87.49
28927;BME280;16038;47.692;9.400;2023-03-08T12:49:55;94905.78;;;8.95;86.78
28927;BME280;16038;47.692;9.400;2023-03-08T12:52:30;94903.81;;;8.96;87.00
28927;BME280;16038;47.692;9.400;2023-03-08T12:55:01;94906.75;;;9.19;85.71
28927;BME280;16038;47.692;9.400;2023-03-08T12:57:28;94905.38;;;9.49;84.19
28927;BME280;16038;47.692;9.400;2023-03-08T12:59:55;94908.03;;;9.60;83.40
28927;BME280;16038;47.692;9.400;2023-03-08T13:04:47;94896.50;;;9.83;82.34
28927;BME280;16038;47.692;9.400;2023-03-08T13:07:46;94907.50;;;9.76;82.65
28927;BME280;16038;47.692;9.400;2023-03-08T13:10:20;94897.22;;;9.87;82.20
28927;BME280;16038;47.692;9.400;2023-03-08T13:15:22;94876.94;;;9.85;82.30
28927;BME280;16038;47.692;9.400;2023-03-08T13:17:49;94896.09;;;9.81;82.06
28927;BME280;16038;47.692;9.400;2023-03-08T13:20:28;94904.66;;;9.87;82.44
28927;BME280;16038;47.692;9.400;2023-03-08T13:23:00;94893.22;;;9.95;81.83
28927;BME280;16038;47.692;9.400;2023-03-08T13:32:54;94876.44;;;10.31;80.78
28927;BME280;16038;47.692;9.400;2023-03-08T13:35:19;94870.47;;;10.40;80.60
28927;BME280;16038;47.692;9.400;2023-03-08T13:37:56;94877.56;;;10.38;80.48
28927;BME280;16038;47.692;9.400;2023-03-08T13:40:23;94874.81;;;10.68;79.65
28927;BME280;16038;47.692;9.400;2023-03-08T13:42:52;94865.94;;;10.61;79.09
28927;BME280;16038;47.692;9.400;2023-03-08T13:45:18;94867.50;;;10.58;79.37
28927;BME280;16038;47.692;9.400;2023-03-08T13:47:43;94877.47;;;10.76;78.84
28927;BME280;16038;47.692;9.400;2023-03-08T13:50:25;94878.38;;;10.65;79.41
28927;BME280;16038;47.692;9.400;2023-03-08T13:52:51;94859.13;;;10.73;79.25
28927;BME280;16038;47.692;9.400;2023-03-08T13:55:19;94861.13;;;10.68;78.91
28927;BME280;16038;47.692;9.400;2023-03-08T13:57:46;94859.47;;;10.75;79.34
28927;BME280;16038;47.692;9.400;2023-03-08T14:00:33;94859.13;;;11.00;78.13
28927;BME280;16038;47.692;9.400;2023-03-08T14:03:01;94843.63;;;10.89;78.32
28927;BME280;16038;47.692;9.400;2023-03-08T14:05:31;94845.69;;;10.82;78.77
28927;BME280;16038;47.692;9.400;2023-03-08T14:07:58;94834.38;;;10.80;79.19
28927;BME280;16038;47.692;9.400;2023-03-08T14:10:25;94855.97;;;10.74;79.32
28927;BME280;16038;47.692;9.400;2023-03-08T14:12:54;94846.63;;;10.71;79.87
28927;BME280;16038;47.692;9.400;2023-03-08T14:15:19;94834.22;;;10.63;80.90
28927;BME280;16038;47.692;9.400;2023-03-08T14:17:45;94834.94;;;10.67;80.85
28927;BME280;16038;47.692;9.400;2023-03-08T14:20:18;94831.13;;;10.61;81.45
28927;BME280;16038;47.692;9.400;2023-03-08T14:22:48;94828.06;;;10.56;82.18
28927;BME280;16038;47.692;9.400;2023-03-08T14:25:32;94822.63;;;10.52;82.08